createdAt,value
2022-08-20T00:02:09.698Z,2.67
2022-08-20T00:04:36.796Z,2.37
2022-08-20T00:07:06.528Z,2.63
2022-08-20T00:09:36.605Z,2.90
2022-08-20T00:12:05.840Z,2.80
2022-08-20T00:14:34.010Z,2.77
2022-08-20T00:17:01.827Z,3.23
2022-08-20T00:19:28.928Z,2.90
2022-08-20T00:21:58.164Z,2.90
2022-08-20T00:24:25.700Z,2.90
2022-08-20T00:26:52.984Z,3.00
2022-08-20T00:29:20.488Z,3.27
2022-08-20T00:31:49.949Z,2.80
2022-08-20T00:34:16.754Z,3.00
2022-08-20T00:36:43.592Z,2.77
2022-08-20T00:39:10.430Z,2.80
2022-08-20T00:41:37.488Z,3.00
2022-08-20T00:44:15.665Z,2.80
2022-08-20T00:46:44.500Z,2.73
2022-08-20T00:49:19.046Z,2.87
2022-08-20T00:51:54.564Z,2.90
2022-08-20T00:54:41.706Z,2.90
2022-08-20T00:57:21.780Z,2.50
2022-08-20T00:59:49.996Z,3.00
2022-08-20T01:02:17.787Z,2.57
2022-08-20T01:04:54.775Z,2.60
2022-08-20T01:07:29.119Z,2.70
2022-08-20T01:09:58.194Z,3.17
2022-08-20T01:12:28.179Z,2.87
2022-08-20T01:14:56.012Z,2.77
2022-08-20T01:17:25.685Z,3.07
2022-08-20T01:20:12.741Z,2.70
2022-08-20T01:23:09.063Z,2.57
2022-08-20T01:25:41.483Z,2.90
2022-08-20T01:28:09.369Z,2.90
2022-08-20T01:30:37.064Z,2.77
2022-08-20T01:33:05.099Z,3.13
2022-08-20T01:35:37.725Z,2.50
2022-08-20T01:38:05.659Z,3.07
2022-08-20T01:40:55.816Z,3.30
2022-08-20T01:43:24.074Z,2.40
2022-08-20T01:45:52.891Z,3.33
2022-08-20T01:48:20.954Z,3.00
2022-08-20T01:50:55.730Z,2.80
2022-08-20T01:53:33.455Z,2.30
2022-08-20T01:56:07.229Z,3.30
2022-08-20T01:58:36.925Z,2.40
2022-08-20T02:01:04.503Z,2.70
2022-08-20T02:03:36.549Z,2.10
2022-08-20T02:06:05.378Z,2.70
2022-08-20T02:08:33.501Z,3.00
2022-08-20T02:11:00.183Z,3.20
2022-08-20T02:13:27.229Z,2.43
2022-08-20T02:15:54.360Z,2.27
2022-08-20T02:18:22.497Z,4.23
2022-08-20T02:20:51.510Z,2.77
2022-08-20T02:23:18.931Z,2.73
2022-08-20T02:25:47.518Z,3.07
2022-08-20T02:28:19.669Z,2.97
2022-08-20T02:30:51.308Z,2.80
2022-08-20T02:33:24.130Z,2.63
2022-08-20T02:35:52.634Z,2.93
2022-08-20T02:38:19.545Z,2.83
2022-08-20T02:40:46.624Z,2.40
2022-08-20T02:43:14.434Z,2.90
2022-08-20T02:45:43.890Z,2.50
2022-08-20T02:48:20.817Z,2.60
2022-08-20T02:50:51.300Z,2.63
2022-08-20T02:53:18.379Z,2.77
2022-08-20T02:55:45.125Z,2.53
2022-08-20T02:58:12.544Z,2.87
2022-08-20T03:00:39.910Z,2.90
2022-08-20T03:03:08.960Z,2.60
2022-08-20T03:05:39.296Z,2.73
2022-08-20T03:08:07.390Z,3.20
2022-08-20T03:10:38.682Z,2.60
2022-08-20T03:13:06.655Z,2.67
2022-08-20T03:15:34.521Z,2.53
2022-08-20T03:18:01.374Z,2.70
2022-08-20T03:20:28.571Z,2.53
2022-08-20T03:22:55.381Z,2.90
2022-08-20T03:25:23.945Z,3.20
2022-08-20T03:27:54.305Z,3.20
2022-08-20T03:30:24.340Z,3.20
2022-08-20T03:32:51.390Z,3.90
2022-08-20T03:35:20.210Z,3.60
2022-08-20T03:37:48.107Z,3.30
2022-08-20T03:40:24.273Z,3.30
2022-08-20T03:42:55.508Z,4.13
2022-08-20T03:45:23.208Z,4.07
2022-08-20T03:47:51.790Z,4.00
2022-08-20T03:50:23.508Z,3.50
2022-08-20T03:52:55.160Z,3.63
2022-08-20T03:55:23.857Z,3.40
2022-08-20T03:57:54.685Z,3.80
2022-08-20T04:00:32.619Z,3.70
2022-08-20T04:03:00.817Z,4.00
2022-08-20T04:05:30.062Z,4.00
2022-08-20T04:08:03.023Z,4.73
2022-08-20T04:10:31.646Z,3.90
2022-08-20T04:12:58.352Z,3.63
2022-08-20T04:15:26.834Z,3.80
2022-08-20T04:17:54.164Z,3.60
2022-08-20T04:20:26.094Z,4.90
2022-08-20T04:22:59.069Z,5.37
2022-08-20T04:25:29.813Z,5.53
2022-08-20T04:28:01.879Z,5.63
2022-08-20T04:30:29.664Z,5.40
2022-08-20T04:32:56.783Z,5.67
2022-08-20T04:35:26.827Z,5.13
2022-08-20T04:38:02.641Z,4.93
2022-08-20T04:40:48.162Z,5.40
2022-08-20T04:43:15.085Z,5.40
2022-08-20T04:45:42.567Z,5.40
2022-08-20T04:48:14.694Z,4.97
2022-08-20T04:50:44.866Z,6.20
2022-08-20T04:53:14.532Z,5.20
2022-08-20T04:55:42.876Z,5.20
2022-08-20T04:58:37.996Z,5.03
2022-08-20T05:01:10.336Z,5.43
2022-08-20T05:03:39.340Z,5.03
2022-08-20T05:06:08.176Z,4.50
2022-08-20T05:08:36.750Z,4.47
2022-08-20T05:11:32.825Z,5.33
2022-08-20T05:13:52.781Z,5.37
2022-08-20T05:16:20.883Z,6.00
2022-08-20T05:18:52.200Z,7.23
2022-08-20T05:21:21.025Z,7.50
2022-08-20T05:23:49.052Z,7.90
2022-08-20T05:26:16.199Z,7.80
2022-08-20T05:28:57.449Z,5.90
2022-08-20T05:31:31.271Z,6.13
2022-08-20T05:34:00.491Z,5.57
2022-08-20T05:36:27.213Z,6.03
2022-08-20T05:38:54.626Z,6.70
2022-08-20T05:41:29.729Z,7.03
2022-08-20T05:44:01.285Z,6.47
2022-08-20T05:46:32.118Z,7.97
2022-08-20T05:49:01.455Z,7.83
2022-08-20T05:51:29.353Z,7.80
2022-08-20T05:53:57.968Z,8.20
2022-08-20T05:56:26.721Z,8.00
2022-08-20T05:58:54.048Z,8.27
2022-08-20T06:01:20.863Z,7.53
2022-08-20T06:04:06.325Z,6.00
2022-08-20T06:06:46.149Z,6.80
2022-08-20T06:09:15.467Z,5.57
2022-08-20T06:11:42.310Z,6.13
2022-08-20T06:14:09.045Z,5.90
2022-08-20T06:16:37.129Z,7.20
2022-08-20T06:19:04.921Z,7.63
2022-08-20T06:21:32.445Z,8.13
2022-08-20T06:23:59.759Z,7.63
2022-08-20T06:26:29.658Z,7.43
2022-08-20T06:28:58.237Z,7.47
2022-08-20T06:31:24.990Z,7.83
2022-08-20T06:33:51.713Z,6.70
2022-08-20T06:36:19.146Z,7.37
2022-08-20T06:38:46.669Z,6.60
2022-08-20T06:41:14.170Z,7.00
2022-08-20T06:43:41.096Z,6.93
2022-08-20T06:46:08.410Z,6.63
2022-08-20T06:48:35.228Z,6.63
2022-08-20T06:51:02.131Z,6.83
2022-08-20T06:53:29.334Z,6.30
2022-08-20T06:55:58.910Z,6.23
2022-08-20T06:58:36.805Z,6.13
2022-08-20T07:01:09.803Z,5.97
2022-08-20T07:03:42.257Z,5.80
2022-08-20T07:06:21.974Z,6.33
2022-08-20T07:08:48.725Z,6.03
2022-08-20T07:11:15.420Z,6.07
2022-08-20T07:13:42.137Z,6.77
2022-08-20T07:16:09.281Z,6.27
2022-08-20T07:18:36.381Z,7.20
2022-08-20T07:21:03.325Z,6.60
2022-08-20T07:23:31.660Z,7.43
2022-08-20T07:25:58.795Z,7.13
2022-08-20T07:28:28.808Z,6.53
2022-08-20T07:31:15.892Z,6.53
2022-08-20T07:33:44.452Z,6.57
2022-08-20T07:36:12.045Z,5.87
2022-08-20T07:38:38.833Z,5.97
2022-08-20T07:41:13.479Z,5.80
2022-08-20T07:43:41.295Z,5.00
2022-08-20T07:46:09.301Z,5.23
2022-08-20T07:48:41.854Z,4.30
2022-08-20T07:51:10.772Z,4.77
2022-08-20T07:53:39.277Z,3.53
2022-08-20T07:56:09.044Z,3.20
2022-08-20T07:58:38.466Z,2.87
2022-08-20T08:01:07.103Z,2.60
2022-08-20T08:03:37.671Z,3.10
2022-08-20T08:06:18.257Z,2.83
2022-08-20T08:09:08.231Z,3.30
2022-08-20T08:11:38.202Z,3.70
2022-08-20T08:14:08.067Z,3.33
2022-08-20T08:16:36.056Z,3.17
2022-08-20T08:19:06.985Z,3.13
2022-08-20T08:21:33.705Z,3.23
2022-08-20T08:24:00.495Z,3.63
2022-08-20T08:26:28.858Z,3.40
2022-08-20T08:28:56.076Z,3.40
2022-08-20T08:31:22.792Z,2.80
2022-08-20T08:33:49.528Z,3.07
2022-08-20T08:36:16.864Z,3.60
2022-08-20T08:38:45.693Z,3.87
2022-08-20T08:41:35.561Z,3.17
2022-08-20T08:44:05.997Z,3.50
2022-08-20T08:46:42.472Z,3.43
2022-08-20T08:49:16.350Z,2.70
2022-08-20T08:51:50.863Z,2.70
2022-08-20T08:54:22.151Z,2.30
2022-08-20T08:56:49.773Z,1.90
2022-08-20T08:59:18.571Z,1.93
2022-08-20T09:01:54.212Z,2.07
2022-08-20T09:04:30.328Z,2.30
2022-08-20T09:06:58.682Z,2.60
2022-08-20T09:09:32.879Z,2.40
2022-08-20T09:12:07.292Z,2.33
2022-08-20T09:14:34.252Z,2.57
2022-08-20T09:17:00.998Z,2.97
2022-08-20T09:19:27.769Z,2.17
2022-08-20T09:21:54.665Z,2.13
2022-08-20T09:24:21.446Z,2.13
2022-08-20T09:26:48.166Z,1.97
2022-08-20T09:29:15.102Z,2.03
2022-08-20T09:31:41.890Z,1.53
2022-08-20T09:34:08.607Z,2.10
2022-08-20T09:36:35.349Z,1.67
2022-08-20T09:39:02.932Z,1.93
2022-08-20T09:41:30.905Z,1.70
2022-08-20T09:44:00.515Z,1.57
2022-08-20T09:46:27.733Z,1.53
2022-08-20T09:48:55.202Z,1.30
2022-08-20T09:51:22.807Z,1.10
2022-08-20T09:53:50.074Z,1.10
2022-08-20T09:56:17.178Z,0.93
2022-08-20T09:58:50.796Z,0.90
2022-08-20T10:01:19.449Z,1.00
2022-08-20T10:03:49.998Z,0.97
2022-08-20T10:06:20.821Z,1.17
2022-08-20T10:08:49.421Z,0.87
2022-08-20T10:11:18.030Z,0.90
2022-08-20T10:13:45.288Z,0.90
2022-08-20T10:16:12.078Z,1.00
2022-08-20T10:18:38.818Z,0.67
2022-08-20T10:21:15.110Z,0.70
2022-08-20T10:23:42.434Z,1.27
2022-08-20T10:26:10.403Z,0.90
2022-08-20T10:28:37.810Z,0.70
2022-08-20T10:31:09.266Z,1.03
2022-08-20T10:33:36.411Z,0.80
2022-08-20T10:36:12.106Z,0.73
2022-08-20T10:38:39.417Z,1.07
2022-08-20T10:41:06.247Z,0.90
2022-08-20T10:43:33.017Z,1.00
2022-08-20T10:46:00.156Z,0.70
2022-08-20T10:48:26.996Z,0.80
2022-08-20T10:50:53.791Z,0.80
2022-08-20T10:53:20.501Z,0.60
2022-08-20T10:55:47.575Z,1.00
2022-08-20T10:58:14.541Z,0.70
2022-08-20T11:00:41.698Z,0.93
2022-08-20T11:03:08.555Z,0.80
2022-08-20T11:05:35.288Z,0.70
2022-08-20T11:08:04.773Z,0.60
2022-08-20T11:10:34.774Z,0.77
2022-08-20T11:13:03.240Z,0.80
2022-08-20T11:15:30.299Z,0.90
2022-08-20T11:17:57.161Z,0.80
2022-08-20T11:20:26.202Z,0.83
2022-08-20T11:22:54.393Z,0.90
2022-08-20T11:25:21.457Z,1.07
2022-08-20T11:27:51.005Z,1.00
2022-08-20T11:30:26.012Z,0.90
2022-08-20T11:32:52.971Z,1.10
2022-08-20T11:38:08.677Z,0.70
2022-08-20T11:40:35.337Z,0.70
2022-08-20T11:43:18.280Z,0.80
2022-08-20T11:45:47.567Z,0.77
2022-08-20T11:48:14.691Z,0.60
2022-08-20T11:50:41.473Z,0.77
2022-08-20T11:53:08.306Z,0.73
2022-08-20T11:55:35.735Z,0.50
2022-08-20T11:58:02.797Z,0.43
2022-08-20T12:00:32.952Z,0.20
2022-08-20T12:03:05.386Z,0.40
2022-08-20T12:05:33.589Z,0.50
2022-08-20T12:08:01.757Z,0.57
2022-08-20T12:10:29.936Z,0.60
2022-08-20T12:12:57.065Z,0.40
2022-08-20T12:15:26.626Z,0.20
2022-08-20T12:17:53.966Z,0.40
2022-08-20T12:20:21.263Z,0.40
2022-08-20T12:22:47.941Z,0.33
2022-08-20T12:25:15.073Z,0.60
2022-08-20T12:27:42.035Z,0.43
2022-08-20T12:30:12.865Z,0.40
2022-08-20T12:32:40.037Z,0.30
2022-08-20T12:35:08.887Z,0.53
2022-08-20T12:37:35.916Z,0.60
2022-08-20T12:40:05.609Z,0.23
2022-08-20T12:42:32.471Z,0.33
2022-08-20T12:44:59.948Z,0.30
2022-08-20T12:47:29.608Z,0.77
2022-08-20T12:50:10.832Z,0.40
2022-08-20T12:52:38.159Z,0.30
2022-08-20T12:55:06.585Z,0.50
2022-08-20T12:57:34.832Z,0.40
2022-08-20T13:00:10.053Z,0.40
2022-08-20T13:02:38.651Z,0.30
2022-08-20T13:05:06.896Z,0.60
2022-08-20T13:07:34.254Z,0.67
2022-08-20T13:10:03.719Z,0.60
2022-08-20T13:12:30.923Z,0.60
2022-08-20T13:14:57.935Z,0.63
2022-08-20T13:17:38.986Z,0.40
2022-08-20T13:20:16.412Z,0.67
2022-08-20T13:22:43.633Z,0.80
2022-08-20T13:25:11.683Z,0.80
2022-08-20T13:27:40.279Z,0.80
2022-08-20T13:30:08.766Z,0.90
2022-08-20T13:32:35.492Z,0.80
2022-08-20T13:35:02.467Z,1.00
2022-08-20T13:37:30.345Z,0.90
2022-08-20T13:39:59.027Z,1.20
2022-08-20T13:42:27.337Z,1.33
2022-08-20T13:44:54.853Z,1.37
2022-08-20T13:47:24.892Z,1.07
2022-08-20T13:50:00.302Z,1.13
2022-08-20T13:52:27.807Z,1.50
2022-08-20T13:54:54.898Z,1.00
2022-08-20T13:57:23.281Z,1.17
2022-08-20T13:59:51.542Z,1.63
2022-08-20T14:02:19.228Z,1.50
2022-08-20T14:04:48.373Z,1.30
2022-08-20T14:07:19.226Z,1.13
2022-08-20T14:09:51.600Z,1.10
2022-08-20T14:12:18.275Z,1.13
2022-08-20T14:14:44.988Z,0.97
2022-08-20T14:17:19.301Z,1.27
2022-08-20T14:19:48.277Z,1.30
2022-08-20T14:22:17.734Z,1.40
2022-08-20T14:24:46.252Z,1.27
2022-08-20T14:27:14.557Z,1.20
2022-08-20T14:29:43.336Z,1.20
2022-08-20T14:32:10.423Z,1.30
2022-08-20T14:34:37.491Z,1.10
2022-08-20T14:37:13.546Z,1.83
2022-08-20T14:39:41.105Z,3.10
2022-08-20T14:42:08.021Z,1.50
2022-08-20T14:44:35.241Z,4.70
2022-08-20T14:47:11.313Z,2.97
2022-08-20T14:49:38.527Z,2.10
2022-08-20T14:52:05.691Z,1.30
2022-08-20T14:54:32.512Z,1.13
2022-08-20T14:57:02.180Z,1.30
2022-08-20T14:59:29.231Z,1.40
2022-08-20T15:01:56.033Z,1.17
2022-08-20T15:04:23.958Z,1.33
2022-08-20T15:06:54.655Z,1.27
2022-08-20T15:09:21.515Z,1.07
2022-08-20T15:11:48.521Z,1.20
2022-08-20T15:14:15.382Z,1.27
2022-08-20T15:16:45.252Z,1.37
2022-08-20T15:19:11.991Z,1.10
2022-08-20T15:21:45.056Z,1.60
2022-08-20T15:24:19.143Z,1.00
2022-08-20T15:26:46.456Z,1.23
2022-08-20T15:29:23.117Z,1.10
2022-08-20T15:31:51.011Z,1.20
2022-08-20T15:34:18.393Z,1.37
2022-08-20T15:36:45.762Z,1.10
2022-08-20T15:39:12.537Z,1.10
2022-08-20T15:41:39.282Z,1.27
2022-08-20T15:44:07.065Z,1.23
2022-08-20T15:46:36.249Z,1.33
2022-08-20T15:49:11.261Z,1.30
2022-08-20T15:51:48.991Z,1.27
2022-08-20T15:54:24.332Z,1.37
2022-08-20T15:56:59.682Z,1.53
2022-08-20T15:59:52.376Z,1.60
2022-08-20T16:02:43.849Z,1.30
2022-08-20T16:05:41.527Z,1.30
2022-08-20T16:08:13.808Z,1.50
2022-08-20T16:10:49.278Z,1.77
2022-08-20T16:13:38.672Z,1.80
2022-08-20T16:16:11.078Z,1.40
2022-08-20T16:18:39.880Z,1.30
2022-08-20T16:21:12.151Z,1.50
2022-08-20T16:23:40.767Z,1.50
2022-08-20T16:26:10.226Z,1.50
2022-08-20T16:29:04.642Z,1.57
2022-08-20T16:32:00.494Z,1.40
2022-08-20T16:34:51.372Z,1.50
2022-08-20T16:37:18.072Z,1.50
2022-08-20T16:40:31.022Z,1.13
2022-08-20T16:43:02.083Z,1.70
2022-08-20T16:45:34.910Z,1.40
2022-08-20T16:48:07.115Z,1.90
2022-08-20T16:50:49.243Z,1.67
2022-08-20T16:53:22.148Z,1.83
2022-08-20T16:55:48.927Z,1.77
2022-08-20T16:58:15.907Z,1.40
2022-08-20T17:00:45.378Z,1.40
2022-08-20T17:03:21.200Z,1.60
2022-08-20T17:06:00.805Z,1.73
2022-08-20T17:08:31.758Z,1.53
2022-08-20T17:11:00.600Z,1.60
2022-08-20T17:13:42.871Z,1.50
2022-08-20T17:16:15.580Z,1.40
2022-08-20T17:18:45.005Z,1.70
2022-08-20T17:21:11.695Z,1.77
2022-08-20T17:23:55.603Z,1.70
2022-08-20T17:26:26.526Z,1.57
2022-08-20T17:29:00.120Z,1.40
2022-08-20T17:31:38.727Z,1.40
2022-08-20T17:34:12.516Z,1.50
2022-08-20T17:36:49.650Z,2.07
2022-08-20T17:39:19.080Z,1.50
2022-08-20T17:41:54.447Z,1.70
2022-08-20T17:44:25.732Z,1.93
2022-08-20T17:46:53.832Z,1.90
2022-08-20T17:49:57.310Z,1.97
2022-08-20T17:52:43.718Z,1.83
2022-08-20T17:55:12.186Z,1.80
2022-08-20T17:57:42.687Z,2.20
2022-08-20T18:00:23.324Z,1.80
2022-08-20T18:03:14.995Z,2.33
2022-08-20T18:05:43.424Z,2.30
2022-08-20T18:08:30.940Z,2.37
2022-08-20T18:11:26.622Z,2.13
2022-08-20T18:14:12.867Z,2.20
2022-08-20T18:16:55.025Z,2.10
2022-08-20T18:19:30.606Z,2.07
2022-08-20T18:22:09.840Z,2.43
2022-08-20T18:24:40.249Z,2.10
2022-08-20T18:27:14.846Z,2.50
2022-08-20T18:29:46.662Z,2.93
2022-08-20T18:32:33.961Z,3.50
2022-08-20T18:35:08.632Z,2.50
2022-08-20T18:37:35.921Z,2.67
2022-08-20T18:40:31.141Z,2.97
2022-08-20T18:43:10.629Z,3.07
2022-08-20T18:45:37.370Z,3.13
2022-08-20T18:48:05.277Z,3.17
2022-08-20T18:50:41.173Z,2.83
2022-08-20T18:53:16.884Z,2.80
2022-08-20T18:56:01.912Z,2.73
2022-08-20T18:58:32.683Z,3.30
2022-08-20T19:01:01.837Z,3.10
2022-08-20T19:03:38.446Z,3.10
2022-08-20T19:06:31.167Z,3.23
2022-08-20T19:12:20.652Z,3.10
2022-08-20T19:14:55.854Z,3.30
2022-08-20T19:17:56.332Z,3.90
2022-08-20T19:20:30.038Z,3.37
2022-08-20T19:23:04.659Z,3.60
2022-08-20T19:25:35.822Z,3.43
2022-08-20T19:28:39.821Z,3.50
2022-08-20T19:31:16.701Z,3.33
2022-08-20T19:33:47.204Z,3.77
2022-08-20T19:36:28.114Z,3.77
2022-08-20T19:38:59.581Z,3.57
2022-08-20T19:41:39.237Z,3.40
2022-08-20T19:44:05.947Z,3.57
2022-08-20T19:46:45.125Z,3.33
2022-08-20T19:49:29.052Z,4.00
2022-08-20T19:52:21.370Z,3.70
2022-08-20T19:54:51.991Z,3.23
2022-08-20T19:57:20.215Z,3.60
2022-08-20T20:00:07.472Z,3.40
2022-08-20T20:02:34.883Z,3.27
2022-08-20T20:05:06.377Z,3.47
2022-08-20T20:07:44.370Z,3.40
2022-08-20T20:10:22.307Z,3.03
2022-08-20T20:12:49.026Z,4.00
2022-08-20T20:15:16.518Z,3.37
2022-08-20T20:17:43.903Z,3.10
2022-08-20T20:20:28.372Z,3.50
2022-08-20T20:23:01.979Z,3.03
2022-08-20T20:25:33.890Z,3.30
2022-08-20T20:28:22.635Z,3.50
2022-08-20T20:30:49.774Z,3.30
2022-08-20T20:33:44.299Z,3.10
2022-08-20T20:36:15.915Z,3.30
2022-08-20T20:38:58.415Z,3.60
2022-08-20T20:41:28.781Z,3.17
2022-08-20T20:44:19.853Z,2.87
2022-08-20T20:46:49.529Z,3.10
2022-08-20T20:49:24.275Z,3.37
2022-08-20T20:52:23.056Z,2.80
2022-08-20T20:54:50.725Z,3.00
2022-08-20T20:57:32.658Z,2.60
2022-08-20T21:00:14.151Z,2.80
2022-08-20T21:02:41.388Z,3.35
2022-08-20T21:05:08.537Z,3.27
2022-08-20T21:07:44.127Z,2.80
2022-08-20T21:10:10.838Z,7.20
2022-08-20T21:12:37.511Z,4.27
2022-08-20T21:15:04.663Z,3.23
2022-08-20T21:17:31.476Z,2.80
2022-08-20T21:20:00.869Z,2.60
2022-08-20T21:22:27.674Z,2.73
2022-08-20T21:24:54.453Z,2.70
2022-08-20T21:27:24.592Z,3.43
2022-08-20T21:29:52.559Z,3.33
2022-08-20T21:32:19.884Z,2.90
2022-08-20T21:34:47.347Z,3.20
2022-08-20T21:37:15.074Z,2.90
2022-08-20T21:39:42.089Z,2.80
2022-08-20T21:42:28.695Z,2.57
2022-08-20T21:44:57.392Z,2.63
2022-08-20T21:47:24.182Z,2.87
2022-08-20T21:49:50.838Z,2.33
2022-08-20T21:52:18.684Z,2.53
2022-08-20T21:54:45.432Z,2.40
2022-08-20T21:57:24.964Z,2.50
2022-08-20T21:59:52.326Z,2.67
2022-08-20T22:02:19.674Z,3.00
2022-08-20T22:04:46.409Z,2.50
2022-08-20T22:07:13.296Z,2.87
2022-08-20T22:09:40.023Z,5.43
2022-08-20T22:12:20.576Z,2.50
2022-08-20T22:14:47.633Z,2.60
2022-08-20T22:17:15.112Z,2.47
2022-08-20T22:19:41.959Z,2.87
2022-08-20T22:22:10.787Z,3.07
2022-08-20T22:24:37.822Z,3.60
2022-08-20T22:27:06.040Z,2.93
2022-08-20T22:29:32.922Z,2.73
2022-08-20T22:32:00.835Z,3.03
2022-08-20T22:34:31.092Z,2.33
2022-08-20T22:36:59.521Z,2.90
2022-08-20T22:39:26.300Z,2.43
2022-08-20T22:41:53.201Z,2.70
2022-08-20T22:44:20.400Z,3.23
2022-08-20T22:46:51.523Z,3.27
2022-08-20T22:49:23.678Z,3.97
2022-08-20T22:51:50.517Z,3.07
2022-08-20T22:54:22.077Z,3.07
2022-08-20T22:56:49.637Z,3.00
2022-08-20T22:59:18.547Z,2.80
2022-08-20T23:01:46.285Z,2.93
2022-08-20T23:04:21.665Z,3.23
2022-08-20T23:06:48.557Z,2.77
2022-08-20T23:09:15.337Z,3.23
2022-08-20T23:11:48.387Z,3.37
2022-08-20T23:14:15.058Z,3.13
2022-08-20T23:16:46.138Z,3.13
2022-08-20T23:19:18.441Z,3.40
2022-08-20T23:21:45.117Z,3.90
2022-08-20T23:24:14.197Z,3.90
2022-08-20T23:26:41.592Z,3.40
2022-08-20T23:29:22.534Z,3.30
2022-08-20T23:31:54.005Z,4.03
2022-08-20T23:34:20.698Z,4.20
2022-08-20T23:36:47.901Z,3.60
2022-08-20T23:39:14.560Z,3.50
2022-08-20T23:41:47.649Z,4.33
2022-08-20T23:44:26.226Z,3.87
2022-08-20T23:46:55.802Z,3.97
2022-08-20T23:49:22.552Z,3.83
2022-08-20T23:51:49.239Z,3.77
2022-08-20T23:54:16.045Z,4.00
2022-08-20T23:56:42.743Z,4.07
2022-08-20T23:59:09.467Z,3.83
